Walkington, United Kingdom
Current Conditions -  °F | °C
As of 5:50 AM on Wednesday 28 Jan 2015 (Local Time) from EGXV Reporting Station
Scattered Clouds Scattered Clouds  
Wind Chill: 39°   Ceiling: Unl
Heat Index: 46°   Visibility: 6mi
Dew Point: 41°   Wind: 18mph
Humidity: 81%   Direction: 210°SSW
Pressure: 29.47"   Gusts: NA
Location:  53.82°N, 0.05°W
Report Text: EGXV 280550Z AUTO 21016KT 9999 SCT023/// SCT200/// 08/05 Q0998
Loading
Personal Weather Stations






























Interactive Weather Map New forecast layout! Learn more

10-Day Weather Forecast

Advertisements
Track Severe Weather on mobile